Time;durP1;ratioP1;P1;durP2;ratioP2;P2;SDS_P1;SDS_P2;PMS_P1;PMS_P2;Temp;Humidity;BMP_temperature;BMP_pressure;BME280_temperature;BME280_humidity;BME280_pressure;Samples;Min_cycle;Max_cycle;Signal;HPM_P1;HPM_P2
2024/02/22 00:01:49;;;;;;;;;;;11.10;99.90;;;;;;5029913;28;19925;-63
2024/02/22 00:04:21;;;;;;;;;;;11.40;99.90;;;;;;5029277;28;20319;-64
2024/02/22 00:06:53;;;;;;;;;;;11.60;99.90;;;;;;5028245;28;19921;-63
2024/02/22 00:09:25;;;;;;;;;;;11.80;99.90;;;;;;5011130;28;20381;-64
2024/02/22 00:11:56;;;;;;;;;;;12.00;99.90;;;;;;5031955;28;20361;-64
2024/02/22 00:14:23;;;;;;;;;;;12.00;99.90;;;;;;5028484;28;19932;-64
2024/02/22 00:16:55;;;;;;;;;;;11.90;99.90;;;;;;5030116;28;19931;-63
2024/02/22 00:19:27;;;;;;;;;;;11.90;99.90;;;;;;5029741;28;20393;-63
2024/02/22 00:21:59;;;;;;;;;;;11.90;99.90;;;;;;5030451;28;19974;-63
2024/02/22 00:24:31;;;;;;;;;;;12.00;99.90;;;;;;5028976;28;19952;-64
2024/02/22 00:26:57;;;;;;;;;;;11.90;99.90;;;;;;5030155;28;19986;-64
2024/02/22 00:29:24;;;;;;;;;;;11.90;99.90;;;;;;5031123;28;19921;-64
2024/02/22 00:31:56;;;;;;;;;;;11.80;99.90;;;;;;5016142;28;19928;-64
2024/02/22 00:34:22;;;;;;;;;;;12.10;99.90;;;;;;5033614;28;19995;-64
2024/02/22 00:36:54;;;;;;;;;;;12.10;99.90;;;;;;5028593;28;19928;-63
2024/02/22 00:39:26;;;;;;;;;;;12.10;99.90;;;;;;5032348;28;19927;-64
2024/02/22 00:41:57;;;;;;;;;;;12.10;99.90;;;;;;5033514;28;19924;-64
2024/02/22 00:44:29;;;;;;;;;;;12.10;99.90;;;;;;5033031;28;19952;-64
2024/02/22 00:46:56;;;;;;;;;;;12.20;99.90;;;;;;5034243;28;19921;-63
2024/02/22 00:49:28;;;;;;;;;;;12.30;99.90;;;;;;5034194;28;19925;-63
2024/02/22 00:51:59;;;;;;;;;;;12.30;99.90;;;;;;5034093;28;19929;-64
2024/02/22 00:54:31;;;;;;;;;;;12.40;99.90;;;;;;5015796;28;19929;-64
2024/02/22 00:57:03;;;;;;;;;;;12.40;99.90;;;;;;5021667;28;19921;-63
2024/02/22 00:59:35;;;;;;;;;;;12.40;99.90;;;;;;5016524;28;20018;-64
2024/02/22 01:02:07;;;;;;;;;;;12.40;99.90;;;;;;5031995;28;19964;-64
2024/02/22 01:04:38;;;;;;;;;;;12.30;99.90;;;;;;5004141;28;19925;-64
2024/02/22 01:07:10;;;;;;;;;;;12.30;99.90;;;;;;5015997;28;20309;-64
2024/02/22 01:09:42;;;;;;;;;;;12.30;99.90;;;;;;5033349;28;20440;-64
2024/02/22 01:12:09;;;;;;;;;;;12.20;99.90;;;;;;5034170;28;19925;-64
2024/02/22 01:14:36;;;;;;;;;;;12.20;99.90;;;;;;5033889;28;19925;-64
2024/02/22 01:17:03;;;;;;;;;;;12.30;99.90;;;;;;5033841;28;20724;-63
2024/02/22 01:19:34;;;;;;;;;;;12.30;99.90;;;;;;5033834;28;19925;-64
2024/02/22 01:22:08;;;;;;;;;;;12.20;99.90;;;;;;5032604;28;19921;-64
2024/02/22 01:24:40;;;;;;;;;;;12.20;99.90;;;;;;5032574;28;20500;-64
2024/02/22 01:27:12;;;;;;;;;;;12.20;99.90;;;;;;5029989;28;19929;-64
2024/02/22 01:29:44;;;;;;;;;;;12.20;99.90;;;;;;5007765;28;20308;-64
2024/02/22 01:32:16;;;;;;;;;;;12.10;99.90;;;;;;5032714;28;19921;-64
2024/02/22 01:34:48;;;;;;;;;;;12.10;99.90;;;;;;5005885;28;19943;-64
2024/02/22 01:37:19;;;;;;;;;;;12.10;99.90;;;;;;5030073;28;19986;-64
2024/02/22 01:39:46;;;;;;;;;;;12.00;99.90;;;;;;5033450;28;20015;-64
2024/02/22 01:42:18;;;;;;;;;;;12.00;99.90;;;;;;5032544;28;19924;-63
2024/02/22 01:44:50;;;;;;;;;;;11.90;99.90;;;;;;5033265;28;19950;-64
2024/02/22 01:47:21;;;;;;;;;;;11.90;99.90;;;;;;5033224;28;19921;-64
2024/02/22 01:49:53;;;;;;;;;;;11.80;99.90;;;;;;5029542;28;19975;-64
2024/02/22 01:52:26;;;;;;;;;;;11.80;99.90;;;;;;5002017;28;19925;-64
2024/02/22 01:54:53;;;;;;;;;;;11.70;99.90;;;;;;5033230;28;19921;-64
2024/02/22 01:57:25;;;;;;;;;;;11.70;99.90;;;;;;5029204;28;19925;-63
2024/02/22 01:59:56;;;;;;;;;;;11.70;99.90;;;;;;5032801;28;20026;-64
2024/02/22 02:02:28;;;;;;;;;;;11.70;99.90;;;;;;5032856;28;19928;-64
2024/02/22 02:05:00;;;;;;;;;;;11.60;99.90;;;;;;5031295;28;19925;-64
2024/02/22 02:07:32;;;;;;;;;;;11.60;99.90;;;;;;5032564;28;19976;-64
2024/02/22 02:10:05;;;;;;;;;;;11.60;99.90;;;;;;5032096;28;19925;-64
2024/02/22 02:12:37;;;;;;;;;;;11.60;99.90;;;;;;5032534;28;19925;-64
2024/02/22 02:15:09;;;;;;;;;;;11.60;99.90;;;;;;5031218;28;19925;-64
2024/02/22 02:17:43;;;;;;;;;;;11.60;99.90;;;;;;5030944;28;19928;-64
2024/02/22 02:20:10;;;;;;;;;;;11.50;99.90;;;;;;5031051;28;19932;-64
2024/02/22 02:22:45;;;;;;;;;;;11.50;99.90;;;;;;5032197;28;20389;-64
2024/02/22 02:25:17;;;;;;;;;;;11.50;99.90;;;;;;5031985;28;19921;-64
2024/02/22 02:27:49;;;;;;;;;;;11.50;99.90;;;;;;5030546;28;20014;-64
2024/02/22 02:30:16;;;;;;;;;;;11.40;99.90;;;;;;5030542;28;20012;-64
2024/02/22 02:32:47;;;;;;;;;;;11.40;99.90;;;;;;5002980;28;19972;-64
2024/02/22 02:35:19;;;;;;;;;;;11.40;99.90;;;;;;5026503;28;20020;-64
2024/02/22 02:37:51;;;;;;;;;;;11.30;99.90;;;;;;5028721;28;19960;-64
2024/02/22 02:40:23;;;;;;;;;;;11.30;99.90;;;;;;5013076;28;19960;-64
2024/02/22 02:42:55;;;;;;;;;;;11.30;99.90;;;;;;5031836;28;19921;-64
2024/02/22 02:45:26;;;;;;;;;;;11.20;99.90;;;;;;5031812;28;19925;-64
2024/02/22 02:47:53;;;;;;;;;;;11.30;99.90;;;;;;5031517;28;20356;-64
2024/02/22 02:50:25;;;;;;;;;;;11.20;99.90;;;;;;5024413;28;19929;-64
2024/02/22 02:52:57;;;;;;;;;;;11.20;99.90;;;;;;5031879;28;19920;-64
2024/02/22 02:55:29;;;;;;;;;;;11.20;99.90;;;;;;5029170;28;19921;-64
2024/02/22 02:58:02;;;;;;;;;;;11.20;99.90;;;;;;5012018;28;19959;-63
2024/02/22 03:00:34;;;;;;;;;;;11.10;99.90;;;;;;5011940;28;20385;-64
2024/02/22 03:03:05;;;;;;;;;;;11.00;99.90;;;;;;5031650;28;19921;-64
2024/02/22 03:05:38;;;;;;;;;;;11.00;99.90;;;;;;5013064;28;20340;-64
2024/02/22 03:08:10;;;;;;;;;;;10.90;99.90;;;;;;5030266;28;19921;-64
2024/02/22 03:10:42;;;;;;;;;;;10.90;99.90;;;;;;5004011;28;19929;-64
2024/02/22 03:13:14;;;;;;;;;;;11.00;99.90;;;;;;5027395;28;19924;-64
2024/02/22 03:15:48;;;;;;;;;;;10.90;99.90;;;;;;5030450;28;20384;-64
2024/02/22 03:18:19;;;;;;;;;;;10.90;99.90;;;;;;5003665;28;19988;-63
2024/02/22 03:20:52;;;;;;;;;;;10.90;99.90;;;;;;5030036;28;19957;-64
2024/02/22 03:23:25;;;;;;;;;;;10.90;99.90;;;;;;5029812;28;19921;-64
2024/02/22 03:25:57;;;;;;;;;;;10.90;99.90;;;;;;5029045;28;20016;-64
2024/02/22 03:28:29;;;;;;;;;;;10.80;99.90;;;;;;5010805;28;19931;-64
2024/02/22 03:31:01;;;;;;;;;;;10.80;99.90;;;;;;5028072;28;19928;-64
2024/02/22 03:33:28;;;;;;;;;;;10.80;99.90;;;;;;5031001;28;20016;-64
2024/02/22 03:36:04;;;;;;;;;;;10.70;99.90;;;;;;5025583;28;20396;-65
2024/02/22 03:38:37;;;;;;;;;;;10.60;99.90;;;;;;5017777;28;19932;-65
2024/02/22 03:41:09;;;;;;;;;;;10.50;99.90;;;;;;5029985;28;19964;-64
2024/02/22 03:43:41;;;;;;;;;;;10.40;99.90;;;;;;5008483;28;19964;-64
2024/02/22 03:46:12;;;;;;;;;;;10.30;99.90;;;;;;5022679;28;19929;-64
2024/02/22 03:48:44;;;;;;;;;;;10.30;99.90;;;;;;5003754;28;19921;-64
2024/02/22 03:51:16;;;;;;;;;;;10.20;99.90;;;;;;5031216;28;19928;-65
2024/02/22 03:53:43;;;;;;;;;;;10.10;99.90;;;;;;5030769;28;19924;-64
2024/02/22 03:56:15;;;;;;;;;;;10.10;99.90;;;;;;4996410;28;19925;-65
2024/02/22 03:58:42;;;;;;;;;;;10.10;99.90;;;;;;5027164;28;20317;-65
2024/02/22 04:01:09;;;;;;;;;;;10.30;99.90;;;;;;5028641;28;19932;-64
2024/02/22 04:03:36;;;;;;;;;;;10.30;99.90;;;;;;5029480;28;20012;-64
2024/02/22 04:06:08;;;;;;;;;;;10.20;99.90;;;;;;5030316;28;20312;-65
2024/02/22 04:08:34;;;;;;;;;;;10.20;99.90;;;;;;5030621;28;19928;-65
2024/02/22 04:11:02;;;;;;;;;;;10.10;99.90;;;;;;5030783;28;19925;-64
2024/02/22 04:13:36;;;;;;;;;;;10.20;99.90;;;;;;5029579;28;19931;-64
2024/02/22 04:16:08;;;;;;;;;;;10.10;99.90;;;;;;5030618;28;19931;-64
2024/02/22 04:18:40;;;;;;;;;;;10.10;99.90;;;;;;5029040;28;20031;-64
2024/02/22 04:21:12;;;;;;;;;;;10.00;99.90;;;;;;5031082;28;20371;-64
2024/02/22 04:23:44;;;;;;;;;;;9.90;99.90;;;;;;5028413;28;20449;-64
2024/02/22 04:26:16;;;;;;;;;;;9.90;99.90;;;;;;5013899;28;19925;-64
2024/02/22 04:28:48;;;;;;;;;;;9.80;99.90;;;;;;5029484;28;19969;-64
2024/02/22 04:31:19;;;;;;;;;;;9.70;99.90;;;;;;5030832;28;20032;-64
2024/02/22 04:33:51;;;;;;;;;;;9.70;99.90;;;;;;5030286;28;20301;-64
2024/02/22 04:36:23;;;;;;;;;;;9.60;99.90;;;;;;5002674;28;19932;-64
2024/02/22 04:38:55;;;;;;;;;;;9.60;99.90;;;;;;5029205;28;20378;-64
2024/02/22 04:41:26;;;;;;;;;;;9.50;99.90;;;;;;5006918;28;20475;-64
2024/02/22 04:43:53;;;;;;;;;;;9.50;99.90;;;;;;5030695;28;19921;-64
2024/02/22 04:46:25;;;;;;;;;;;9.50;99.90;;;;;;5030720;28;19925;-64
2024/02/22 04:48:57;;;;;;;;;;;9.40;99.90;;;;;;5013525;28;19921;-64
2024/02/22 04:51:30;;;;;;;;;;;9.40;99.90;;;;;;5028312;28;19921;-64
2024/02/22 04:54:02;;;;;;;;;;;9.30;99.90;;;;;;5012885;28;20050;-64
2024/02/22 04:56:34;;;;;;;;;;;9.20;99.90;;;;;;5025622;28;20274;-64
2024/02/22 04:59:06;;;;;;;;;;;9.20;99.90;;;;;;5030606;28;19952;-64
2024/02/22 05:01:38;;;;;;;;;;;9.20;99.90;;;;;;5027240;28;19929;-64
2024/02/22 05:04:09;;;;;;;;;;;9.20;99.90;;;;;;5028173;28;20301;-65
2024/02/22 05:06:36;;;;;;;;;;;9.20;99.90;;;;;;5009072;28;19995;-65
2024/02/22 05:09:12;;;;;;;;;;;9.10;99.90;;;;;;5030265;28;20384;-65
2024/02/22 05:11:45;;;;;;;;;;;9.00;99.90;;;;;;5027956;28;19964;-65
2024/02/22 05:14:17;;;;;;;;;;;9.00;99.90;;;;;;5033280;28;20385;-66
2024/02/22 05:16:49;;;;;;;;;;;8.90;99.90;;;;;;5029799;28;20384;-65
2024/02/22 05:19:20;;;;;;;;;;;8.80;99.90;;;;;;5029294;28;19925;-65
2024/02/22 05:21:51;;;;;;;;;;;8.80;99.90;;;;;;5036361;28;20024;-66
2024/02/22 05:24:23;;;;;;;;;;;8.70;99.90;;;;;;5029507;28;19932;-65
2024/02/22 05:26:50;;;;;;;;;;;8.60;99.90;;;;;;5033181;28;19932;-65
2024/02/22 05:29:22;;;;;;;;;;;8.60;99.90;;;;;;5033535;28;19921;-65
2024/02/22 05:31:55;;;;;;;;;;;8.50;99.90;;;;;;5031464;28;19932;-65
2024/02/22 05:34:27;;;;;;;;;;;8.40;99.90;;;;;;5033205;28;19994;-65
2024/02/22 05:36:59;;;;;;;;;;;8.40;99.90;;;;;;5031420;28;19921;-64
2024/02/22 05:39:26;;;;;;;;;;;8.30;99.90;;;;;;5017561;28;19928;-65
2024/02/22 05:41:53;;;;;;;;;;;8.20;99.90;;;;;;5016574;28;19933;-65
2024/02/22 05:44:25;;;;;;;;;;;8.20;99.90;;;;;;5034328;28;19972;-65
2024/02/22 05:46:58;;;;;;;;;;;8.20;99.90;;;;;;5033871;28;19956;-65
2024/02/22 05:49:31;;;;;;;;;;;8.10;99.90;;;;;;5031735;28;19925;-65
2024/02/22 05:51:57;;;;;;;;;;;8.10;99.90;;;;;;5032680;28;20019;-65
2024/02/22 05:54:29;;;;;;;;;;;8.10;99.90;;;;;;5031486;28;19921;-65
2024/02/22 05:56:56;;;;;;;;;;;8.10;99.90;;;;;;5033466;28;19929;-65
2024/02/22 05:59:28;;;;;;;;;;;8.00;99.90;;;;;;5033810;28;20019;-65
2024/02/22 06:02:01;;;;;;;;;;;8.00;99.90;;;;;;5020484;28;19929;-65
2024/02/22 06:04:32;;;;;;;;;;;8.00;99.90;;;;;;5031324;28;20300;-65
2024/02/22 06:07:04;;;;;;;;;;;8.00;99.90;;;;;;5007373;28;20000;-65
2024/02/22 06:09:36;;;;;;;;;;;8.00;99.90;;;;;;5028050;28;19960;-65
2024/02/22 06:12:03;;;;;;;;;;;7.90;99.90;;;;;;5009366;28;20004;-65
2024/02/22 06:14:35;;;;;;;;;;;8.00;99.90;;;;;;5011059;28;20016;-65
2024/02/22 06:17:07;;;;;;;;;;;8.00;99.90;;;;;;5030417;28;20020;-65
2024/02/22 06:19:34;;;;;;;;;;;7.90;99.90;;;;;;5025979;28;19929;-65
2024/02/22 06:22:05;;;;;;;;;;;7.90;99.90;;;;;;5015588;28;19927;-65
2024/02/22 06:24:32;;;;;;;;;;;8.00;99.90;;;;;;5028179;28;20502;-65
2024/02/22 06:27:04;;;;;;;;;;;8.00;99.90;;;;;;5005574;28;20015;-65
2024/02/22 06:29:40;;;;;;;;;;;8.00;99.90;;;;;;5028409;28;19925;-65
2024/02/22 06:32:12;;;;;;;;;;;8.00;99.90;;;;;;5026993;28;19925;-65
2024/02/22 06:34:39;;;;;;;;;;;7.90;99.90;;;;;;5030896;28;19932;-65
2024/02/22 06:37:12;;;;;;;;;;;7.90;99.90;;;;;;5013755;28;19924;-65
2024/02/22 06:39:44;;;;;;;;;;;7.90;99.90;;;;;;5031052;28;19964;-65
2024/02/22 06:42:15;;;;;;;;;;;7.90;99.90;;;;;;5026551;28;19921;-65
2024/02/22 06:44:47;;;;;;;;;;;7.90;99.90;;;;;;5030225;28;20483;-65
2024/02/22 06:47:19;;;;;;;;;;;7.90;99.90;;;;;;5013481;28;19921;-65
2024/02/22 06:49:47;;;;;;;;;;;7.80;99.90;;;;;;5030365;28;20297;-65
2024/02/22 06:52:19;;;;;;;;;;;7.80;99.90;;;;;;5029275;28;20397;-65
2024/02/22 06:54:51;;;;;;;;;;;7.80;99.90;;;;;;5008089;28;19925;-65
2024/02/22 06:57:18;;;;;;;;;;;7.70;99.90;;;;;;5013983;28;20023;-64
2024/02/22 06:59:45;;;;;;;;;;;7.70;99.90;;;;;;5028056;28;19925;-63
2024/02/22 07:02:15;;;;;;;;;;;7.70;99.90;;;;;;5027768;28;19986;-65
2024/02/22 07:04:43;;;;;;;;;;;7.70;99.90;;;;;;5025628;28;20010;-65
2024/02/22 07:07:10;;;;;;;;;;;7.70;99.90;;;;;;5029822;28;19924;-65
2024/02/22 07:09:38;;;;;;;;;;;7.70;99.90;;;;;;5012535;28;20456;-65
2024/02/22 07:12:09;;;;;;;;;;;7.60;99.90;;;;;;5030783;28;20011;-65
2024/02/22 07:14:41;;;;;;;;;;;7.70;99.90;;;;;;5028939;28;19932;-65
2024/02/22 07:17:13;;;;;;;;;;;7.60;99.90;;;;;;5026063;28;19932;-65
2024/02/22 07:19:45;;;;;;;;;;;7.60;99.90;;;;;;5028240;28;20401;-65
2024/02/22 07:22:17;;;;;;;;;;;7.70;99.90;;;;;;5028807;28;19929;-65
2024/02/22 07:24:49;;;;;;;;;;;7.60;99.90;;;;;;5025585;28;19928;-64
2024/02/22 07:27:21;;;;;;;;;;;7.60;99.90;;;;;;5030072;28;20047;-64
2024/02/22 07:29:53;;;;;;;;;;;7.60;99.90;;;;;;5009264;28;19921;-65
2024/02/22 07:32:24;;;;;;;;;;;7.60;99.90;;;;;;5006334;28;19931;-65
2024/02/22 07:34:51;;;;;;;;;;;7.60;99.90;;;;;;5028598;28;20413;-65
2024/02/22 07:37:18;;;;;;;;;;;7.50;99.90;;;;;;5028331;28;20012;-65
2024/02/22 07:39:50;;;;;;;;;;;7.50;99.90;;;;;;5029114;28;19929;-65
2024/02/22 07:42:16;;;;;;;;;;;7.60;99.90;;;;;;5025218;28;20027;-65
2024/02/22 07:44:48;;;;;;;;;;;7.50;99.90;;;;;;5029104;28;19924;-65
2024/02/22 07:47:20;;;;;;;;;;;7.50;99.90;;;;;;5030115;28;19921;-65
2024/02/22 07:49:52;;;;;;;;;;;7.50;99.90;;;;;;5024957;28;19925;-65
2024/02/22 07:52:19;;;;;;;;;;;7.50;99.90;;;;;;5030827;28;19920;-65
2024/02/22 07:54:51;;;;;;;;;;;7.50;99.90;;;;;;5024161;28;20027;-65
2024/02/22 07:57:22;;;;;;;;;;;7.50;99.90;;;;;;5028281;28;19979;-65
2024/02/22 07:59:57;;;;;;;;;;;7.50;99.90;;;;;;5027769;28;20424;-65
2024/02/22 08:02:34;;;;;;;;;;;7.50;99.90;;;;;;5029666;28;19968;-65
2024/02/22 08:05:06;;;;;;;;;;;7.40;99.90;;;;;;5005952;28;19930;-65
2024/02/22 08:07:33;;;;;;;;;;;7.40;99.90;;;;;;5027313;28;20799;-65
2024/02/22 08:09:59;;;;;;;;;;;7.40;99.90;;;;;;5028253;28;20020;-65
2024/02/22 08:12:26;;;;;;;;;;;7.50;99.90;;;;;;5029224;28;19941;-64
2024/02/22 08:14:53;;;;;;;;;;;7.50;99.90;;;;;;5029298;28;19925;-65
2024/02/22 08:17:25;;;;;;;;;;;7.50;99.90;;;;;;5000299;28;19925;-64
2024/02/22 08:19:52;;;;;;;;;;;7.50;99.90;;;;;;5026782;28;19990;-64
2024/02/22 08:22:19;;;;;;;;;;;7.50;99.90;;;;;;5020397;28;19921;-64
2024/02/22 08:24:51;;;;;;;;;;;7.50;99.90;;;;;;5028023;28;20460;-64
2024/02/22 08:27:23;;;;;;;;;;;7.50;99.90;;;;;;5010620;28;19960;-65
2024/02/22 08:29:55;;;;;;;;;;;7.50;99.90;;;;;;5025827;28;19928;-65
2024/02/22 08:32:22;;;;;;;;;;;7.50;99.90;;;;;;5002086;28;20304;-65
2024/02/22 08:34:54;;;;;;;;;;;7.50;99.90;;;;;;5028050;28;19975;-65
2024/02/22 08:37:26;;;;;;;;;;;7.50;99.90;;;;;;5029790;28;19933;-65
2024/02/22 08:39:58;;;;;;;;;;;7.50;99.90;;;;;;5025636;28;19926;-65
2024/02/22 08:42:25;;;;;;;;;;;7.60;99.90;;;;;;5025575;28;20035;-65
2024/02/22 08:44:56;;;;;;;;;;;7.60;99.90;;;;;;5028859;28;19955;-65
2024/02/22 08:47:23;;;;;;;;;;;7.60;99.90;;;;;;5029615;28;19924;-65
2024/02/22 08:49:55;;;;;;;;;;;7.60;99.90;;;;;;5032378;28;19991;-65
2024/02/22 08:52:27;;;;;;;;;;;7.70;99.90;;;;;;5008061;28;20385;-65
2024/02/22 08:54:59;;;;;;;;;;;7.60;99.90;;;;;;5011488;28;20356;-65
2024/02/22 08:57:31;;;;;;;;;;;7.70;99.90;;;;;;5031831;28;19999;-65
2024/02/22 08:59:57;;;;;;;;;;;7.60;99.90;;;;;;5028374;28;19924;-65
2024/02/22 09:02:24;;;;;;;;;;;7.60;99.90;;;;;;5028109;28;20300;-65
2024/02/22 09:04:56;;;;;;;;;;;7.60;99.90;;;;;;5017420;28;20007;-65
2024/02/22 09:07:28;;;;;;;;;;;7.60;99.90;;;;;;5014471;28;19927;-65
2024/02/22 09:10:00;;;;;;;;;;;7.60;99.90;;;;;;4999782;28;20014;-65
2024/02/22 09:12:27;;;;;;;;;;;7.60;99.90;;;;;;5031221;28;19928;-65
2024/02/22 09:14:59;;;;;;;;;;;7.60;99.90;;;;;;5027184;28;20440;-64
2024/02/22 09:17:31;;;;;;;;;;;7.70;99.90;;;;;;5027256;28;19925;-65
2024/02/22 09:20:04;;;;;;;;;;;7.70;99.90;;;;;;5031242;28;19971;-65
2024/02/22 09:22:36;;;;;;;;;;;7.70;99.90;;;;;;5005205;28;19924;-65
2024/02/22 09:25:10;;;;;;;;;;;7.70;99.90;;;;;;4998780;28;20393;-65
2024/02/22 09:27:42;;;;;;;;;;;7.70;99.90;;;;;;5027667;28;19925;-65
2024/02/22 09:30:14;;;;;;;;;;;7.70;99.90;;;;;;5032426;28;19925;-65
2024/02/22 09:32:46;;;;;;;;;;;7.70;99.90;;;;;;5031384;28;19929;-65
2024/02/22 09:35:13;;;;;;;;;;;7.80;99.90;;;;;;5015013;28;20483;-65
2024/02/22 09:37:39;;;;;;;;;;;7.80;99.90;;;;;;5004390;28;20610;-65
2024/02/22 09:40:08;;;;;;;;;;;7.80;99.90;;;;;;5031033;28;19980;-65
2024/02/22 09:42:35;;;;;;;;;;;7.90;99.90;;;;;;5030214;28;19927;-65
2024/02/22 09:45:08;;;;;;;;;;;7.90;99.90;;;;;;5031049;28;20024;-65
2024/02/22 09:47:40;;;;;;;;;;;7.90;99.90;;;;;;5013601;28;19932;-65
2024/02/22 09:50:10;;;;;;;;;;;7.90;99.90;;;;;;5031347;28;20399;-65
2024/02/22 09:52:37;;;;;;;;;;;8.00;99.90;;;;;;5007450;28;20016;-65
2024/02/22 09:55:11;;;;;;;;;;;7.90;99.90;;;;;;5006375;28;19922;-65
2024/02/22 09:57:43;;;;;;;;;;;8.00;99.90;;;;;;5029171;28;19947;-65
2024/02/22 10:00:10;;;;;;;;;;;8.00;99.90;;;;;;5029807;28;19924;-65
2024/02/22 10:02:45;;;;;;;;;;;8.00;99.90;;;;;;4999952;28;20671;-65
2024/02/22 10:05:19;;;;;;;;;;;8.00;99.90;;;;;;5030750;28;20019;-65
2024/02/22 10:07:51;;;;;;;;;;;8.10;99.90;;;;;;5027374;28;19927;-65
2024/02/22 10:10:27;;;;;;;;;;;8.10;99.90;;;;;;5030099;28;20106;-65
2024/02/22 10:12:59;;;;;;;;;;;8.10;99.90;;;;;;5030219;28;21560;-65
2024/02/22 10:15:27;;;;;;;;;;;8.20;99.90;;;;;;5029920;28;19929;-65
2024/02/22 10:17:59;;;;;;;;;;;8.10;99.90;;;;;;5028519;28;19947;-65
2024/02/22 10:20:30;;;;;;;;;;;8.10;99.90;;;;;;5029640;28;19928;-65
2024/02/22 10:23:07;;;;;;;;;;;8.10;99.90;;;;;;5027862;28;19964;-65
2024/02/22 10:25:39;;;;;;;;;;;8.10;99.90;;;;;;5033355;28;19925;-65
2024/02/22 10:28:14;;;;;;;;;;;8.20;99.90;;;;;;5030954;28;19925;-65
2024/02/22 10:30:46;;;;;;;;;;;8.30;99.90;;;;;;5031013;28;19925;-65
2024/02/22 10:33:18;;;;;;;;;;;8.40;99.90;;;;;;5031091;28;20278;-65
2024/02/22 10:35:50;;;;;;;;;;;8.50;99.90;;;;;;5029833;28;19947;-66
2024/02/22 10:38:22;;;;;;;;;;;8.50;99.90;;;;;;5011927;28;19962;-65
2024/02/22 10:40:55;;;;;;;;;;;8.60;99.90;;;;;;5030341;28;20027;-65
2024/02/22 10:43:26;;;;;;;;;;;8.60;99.90;;;;;;5030888;28;19935;-65
2024/02/22 10:46:02;;;;;;;;;;;8.60;99.90;;;;;;5031594;28;19927;-65
2024/02/22 10:48:33;;;;;;;;;;;8.70;99.90;;;;;;5034935;28;20415;-65
2024/02/22 10:51:05;;;;;;;;;;;8.70;99.90;;;;;;5028932;28;19925;-65
2024/02/22 10:53:35;;;;;;;;;;;8.80;99.90;;;;;;5031430;28;19931;-65
2024/02/22 10:56:04;;;;;;;;;;;8.90;99.90;;;;;;5030855;28;19932;-65
2024/02/22 10:58:38;;;;;;;;;;;9.00;99.90;;;;;;5033263;28;19925;-65
2024/02/22 11:01:11;;;;;;;;;;;9.10;99.90;;;;;;5030931;28;20004;-65
2024/02/22 11:03:43;;;;;;;;;;;9.20;99.90;;;;;;5029920;28;19928;-65
2024/02/22 11:06:18;;;;;;;;;;;9.20;99.90;;;;;;5031227;28;19983;-65
2024/02/22 11:08:50;;;;;;;;;;;9.30;99.90;;;;;;5026261;28;19925;-65
2024/02/22 11:11:30;;;;;;;;;;;9.40;99.90;;;;;;5027437;28;19945;-65
2024/02/22 11:14:02;;;;;;;;;;;9.50;99.90;;;;;;5029285;28;19931;-65
2024/02/22 11:16:35;;;;;;;;;;;9.60;99.90;;;;;;5025991;28;19921;-65
2024/02/22 11:19:09;;;;;;;;;;;9.70;99.90;;;;;;5027121;28;19952;-65
2024/02/22 11:21:37;;;;;;;;;;;9.70;99.90;;;;;;5028771;28;19960;-65
2024/02/22 11:24:06;;;;;;;;;;;9.80;99.90;;;;;;5000233;28;19925;-65
2024/02/22 11:26:39;;;;;;;;;;;9.80;99.90;;;;;;5031141;28;19925;-65
2024/02/22 11:29:11;;;;;;;;;;;9.90;99.90;;;;;;5033966;28;19995;-65
2024/02/22 11:31:42;;;;;;;;;;;9.90;99.90;;;;;;5015199;28;19928;-65
2024/02/22 11:34:15;;;;;;;;;;;9.90;99.90;;;;;;5031301;28;19921;-65
2024/02/22 11:36:47;;;;;;;;;;;10.00;99.90;;;;;;5025791;28;19925;-65
2024/02/22 11:39:16;;;;;;;;;;;10.10;99.90;;;;;;5029861;28;19931;-65
2024/02/22 11:41:46;;;;;;;;;;;10.20;99.90;;;;;;5028129;28;19957;-65
2024/02/22 11:44:17;;;;;;;;;;;10.20;99.90;;;;;;5027916;28;20472;-65
2024/02/22 11:46:45;;;;;;;;;;;10.30;99.90;;;;;;5026198;28;19983;-64
2024/02/22 11:49:14;;;;;;;;;;;10.30;99.90;;;;;;5012234;28;20007;-65
2024/02/22 11:51:46;;;;;;;;;;;10.30;99.90;;;;;;5029536;28;19925;-66
2024/02/22 11:54:16;;;;;;;;;;;10.30;99.90;;;;;;5002526;28;19925;-64
2024/02/22 11:56:48;;;;;;;;;;;10.40;99.90;;;;;;5017266;28;20304;-64
2024/02/22 11:59:14;;;;;;;;;;;10.40;99.90;;;;;;5026570;28;20448;-64
2024/02/22 12:01:44;;;;;;;;;;;10.40;99.90;;;;;;5028798;28;20031;-65
2024/02/22 12:04:16;;;;;;;;;;;10.40;99.90;;;;;;5028628;28;20051;-65
2024/02/22 12:06:43;;;;;;;;;;;10.40;99.90;;;;;;5029319;28;19931;-64
2024/02/22 12:09:15;;;;;;;;;;;10.30;99.90;;;;;;5028328;28;19925;-64
2024/02/22 12:11:47;;;;;;;;;;;10.30;99.90;;;;;;5026531;28;20282;-64
2024/02/22 12:14:19;;;;;;;;;;;10.20;99.90;;;;;;5011272;28;19936;-64
2024/02/22 12:16:50;;;;;;;;;;;10.20;99.90;;;;;;5033020;28;19943;-64
2024/02/22 12:19:17;;;;;;;;;;;10.20;99.90;;;;;;5028648;28;19927;-65
2024/02/22 12:21:49;;;;;;;;;;;10.20;99.90;;;;;;5029410;28;19968;-65
2024/02/22 12:24:16;;;;;;;;;;;10.20;99.90;;;;;;5033184;28;19931;-65
2024/02/22 12:26:49;;;;;;;;;;;10.20;99.90;;;;;;5033022;28;19925;-65
2024/02/22 12:29:21;;;;;;;;;;;10.20;99.90;;;;;;5033364;28;19928;-65
2024/02/22 12:31:47;;;;;;;;;;;10.20;99.90;;;;;;5030959;28;19925;-65
2024/02/22 12:34:16;;;;;;;;;;;10.10;99.90;;;;;;5032405;28;20024;-65
2024/02/22 12:36:45;;;;;;;;;;;10.10;99.90;;;;;;5032821;28;20364;-65
2024/02/22 12:39:12;;;;;;;;;;;10.00;99.90;;;;;;5034437;28;20035;-65
2024/02/22 12:41:38;;;;;;;;;;;10.00;99.90;;;;;;5030120;28;20003;-65
2024/02/22 12:44:10;;;;;;;;;;;10.00;99.90;;;;;;5029705;28;20373;-65
2024/02/22 12:46:38;;;;;;;;;;;10.00;99.90;;;;;;5033866;28;19925;-65
2024/02/22 12:49:06;;;;;;;;;;;10.00;99.90;;;;;;5032344;28;19921;-66
2024/02/22 12:51:32;;;;;;;;;;;10.00;99.90;;;;;;5028330;28;20004;-66
2024/02/22 12:54:04;;;;;;;;;;;10.00;99.90;;;;;;5030475;28;20483;-66
2024/02/22 12:56:31;;;;;;;;;;;10.00;99.90;;;;;;5030254;28;19925;-66
2024/02/22 12:59:05;;;;;;;;;;;10.00;99.90;;;;;;5030364;28;20397;-66
2024/02/22 13:01:37;;;;;;;;;;;9.90;99.90;;;;;;5030132;28;19925;-65
2024/02/22 13:04:05;;;;;;;;;;;9.90;99.90;;;;;;5029823;28;20312;-66
2024/02/22 13:06:37;;;;;;;;;;;9.90;99.90;;;;;;5032180;28;19921;-65
2024/02/22 13:09:04;;;;;;;;;;;9.90;99.90;;;;;;5029115;28;20016;-66
2024/02/22 13:11:31;;;;;;;;;;;9.80;99.90;;;;;;5034209;28;20305;-65
2024/02/22 13:13:58;;;;;;;;;;;9.80;99.90;;;;;;5031806;28;20020;-65
2024/02/22 13:16:28;;;;;;;;;;;9.80;99.90;;;;;;5032190;28;20032;-65
2024/02/22 13:18:54;;;;;;;;;;;9.80;99.90;;;;;;5028886;28;20016;-65
2024/02/22 13:21:26;;;;;;;;;;;9.90;99.90;;;;;;5009734;28;20018;-65
2024/02/22 13:23:53;;;;;;;;;;;9.90;99.90;;;;;;5029269;28;20377;-65
2024/02/22 13:26:25;;;;;;;;;;;10.00;99.90;;;;;;5007086;28;19922;-65
2024/02/22 13:28:53;;;;;;;;;;;10.10;99.90;;;;;;5020562;28;19921;-64
2024/02/22 13:31:20;;;;;;;;;;;10.10;99.90;;;;;;5029245;28;19925;-65
2024/02/22 13:33:51;;;;;;;;;;;10.10;99.90;;;;;;5030669;28;20771;-65
2024/02/22 13:36:23;;;;;;;;;;;10.10;99.90;;;;;;5011646;28;19929;-65
2024/02/22 13:38:50;;;;;;;;;;;10.10;99.90;;;;;;5029317;28;19975;-65
2024/02/22 13:41:23;;;;;;;;;;;10.00;99.90;;;;;;5029801;28;19931;-65
2024/02/22 13:43:55;;;;;;;;;;;10.00;99.90;;;;;;5029437;28;19921;-65
2024/02/22 13:46:27;;;;;;;;;;;10.00;99.90;;;;;;5028227;28;19925;-64
2024/02/22 13:48:59;;;;;;;;;;;10.00;99.90;;;;;;5035447;28;19928;-65
2024/02/22 13:51:31;;;;;;;;;;;10.00;99.90;;;;;;5019535;28;20377;-66
2024/02/22 13:53:58;;;;;;;;;;;10.10;99.90;;;;;;5029264;28;19924;-65
2024/02/22 13:56:29;;;;;;;;;;;10.10;99.90;;;;;;5030673;28;19960;-65
2024/02/22 13:58:56;;;;;;;;;;;10.10;99.90;;;;;;5032015;28;20043;-65
2024/02/22 14:01:28;;;;;;;;;;;10.20;99.90;;;;;;5014227;28;19987;-65
2024/02/22 14:04:00;;;;;;;;;;;10.20;99.90;;;;;;5027281;28;19927;-65
2024/02/22 14:06:32;;;;;;;;;;;10.20;99.90;;;;;;5030846;28;19925;-65
2024/02/22 14:09:04;;;;;;;;;;;10.20;99.90;;;;;;5029768;28;19963;-65
2024/02/22 14:11:37;;;;;;;;;;;10.20;99.90;;;;;;5012469;28;19924;-65
2024/02/22 14:14:09;;;;;;;;;;;10.10;99.90;;;;;;5028292;28;20020;-65
2024/02/22 14:16:41;;;;;;;;;;;10.10;99.90;;;;;;5029340;28;19932;-65
2024/02/22 14:19:08;;;;;;;;;;;10.00;99.90;;;;;;5031470;28;20461;-65
2024/02/22 14:21:34;;;;;;;;;;;10.00;99.90;;;;;;5031691;28;19921;-65
2024/02/22 14:24:01;;;;;;;;;;;10.00;99.90;;;;;;5029967;28;19928;-65
2024/02/22 14:26:28;;;;;;;;;;;9.90;99.90;;;;;;5011075;28;19924;-65
2024/02/22 14:28:55;;;;;;;;;;;9.90;99.90;;;;;;5029579;28;19921;-65
2024/02/22 14:31:27;;;;;;;;;;;9.90;99.90;;;;;;5013340;28;19924;-65
2024/02/22 14:33:59;;;;;;;;;;;9.80;99.90;;;;;;5026867;28;20336;-66
2024/02/22 14:36:30;;;;;;;;;;;9.70;99.90;;;;;;5030437;28;20362;-65
2024/02/22 14:38:57;;;;;;;;;;;9.70;99.90;;;;;;5028982;28;19928;-65
2024/02/22 14:41:30;;;;;;;;;;;9.70;99.90;;;;;;5023552;28;19928;-66
2024/02/22 14:44:01;;;;;;;;;;;9.60;99.90;;;;;;5030957;28;19936;-65